sensor_id;sensor_type;location;lat;lon;timestamp;P1;durP1;ratioP1;P2;durP2;ratioP2
22929;SDS011;11630;42.660;23.292;2023-04-15T00:01:59;15.30;;;6.60;;
22929;SDS011;11630;42.660;23.292;2023-04-15T00:04:30;14.30;;;7.90;;
22929;SDS011;11630;42.660;23.292;2023-04-15T00:07:01;10.03;;;7.10;;
22929;SDS011;11630;42.660;23.292;2023-04-15T00:09:32;10.57;;;6.73;;
22929;SDS011;11630;42.660;23.292;2023-04-15T00:12:03;15.80;;;8.07;;
22929;SDS011;11630;42.660;23.292;2023-04-15T00:14:34;15.50;;;7.60;;
22929;SDS011;11630;42.660;23.292;2023-04-15T00:17:04;15.53;;;7.10;;
22929;SDS011;11630;42.660;23.292;2023-04-15T00:19:35;11.10;;;6.90;;
22929;SDS011;11630;42.660;23.292;2023-04-15T00:22:06;15.27;;;7.23;;
22929;SDS011;11630;42.660;23.292;2023-04-15T00:24:38;11.53;;;7.03;;
22929;SDS011;11630;42.660;23.292;2023-04-15T00:27:09;8.90;;;6.57;;
22929;SDS011;11630;42.660;23.292;2023-04-15T00:29:40;9.90;;;6.13;;
22929;SDS011;11630;42.660;23.292;2023-04-15T00:32:11;12.50;;;6.77;;
22929;SDS011;11630;42.660;23.292;2023-04-15T00:34:42;11.87;;;6.87;;
22929;SDS011;11630;42.660;23.292;2023-04-15T00:37:12;10.47;;;7.13;;
22929;SDS011;11630;42.660;23.292;2023-04-15T00:39:43;10.57;;;6.17;;
22929;SDS011;11630;42.660;23.292;2023-04-15T00:42:14;11.13;;;6.60;;
22929;SDS011;11630;42.660;23.292;2023-04-15T00:44:47;10.93;;;6.60;;
22929;SDS011;11630;42.660;23.292;2023-04-15T00:47:22;12.10;;;6.80;;
22929;SDS011;11630;42.660;23.292;2023-04-15T00:49:53;12.70;;;6.40;;
22929;SDS011;11630;42.660;23.292;2023-04-15T00:52:25;11.37;;;6.30;;
22929;SDS011;11630;42.660;23.292;2023-04-15T00:54:56;14.40;;;6.63;;
22929;SDS011;11630;42.660;23.292;2023-04-15T00:57:27;9.30;;;6.17;;
22929;SDS011;11630;42.660;23.292;2023-04-15T00:59:59;11.10;;;6.13;;
22929;SDS011;11630;42.660;23.292;2023-04-15T01:02:30;8.80;;;5.07;;
22929;SDS011;11630;42.660;23.292;2023-04-15T01:05:02;6.93;;;5.00;;
22929;SDS011;11630;42.660;23.292;2023-04-15T01:07:32;6.70;;;5.20;;
22929;SDS011;11630;42.660;23.292;2023-04-15T01:10:12;9.37;;;4.17;;
22929;SDS011;11630;42.660;23.292;2023-04-15T01:12:42;7.90;;;5.23;;
22929;SDS011;11630;42.660;23.292;2023-04-15T01:15:13;11.10;;;5.80;;
22929;SDS011;11630;42.660;23.292;2023-04-15T01:17:43;10.60;;;5.27;;
22929;SDS011;11630;42.660;23.292;2023-04-15T01:20:14;10.63;;;5.37;;
22929;SDS011;11630;42.660;23.292;2023-04-15T01:22:45;8.30;;;5.03;;
22929;SDS011;11630;42.660;23.292;2023-04-15T01:25:17;12.40;;;5.40;;
22929;SDS011;11630;42.660;23.292;2023-04-15T01:27:49;12.00;;;5.93;;
22929;SDS011;11630;42.660;23.292;2023-04-15T01:30:20;13.97;;;5.93;;
22929;SDS011;11630;42.660;23.292;2023-04-15T01:32:51;9.90;;;5.90;;
22929;SDS011;11630;42.660;23.292;2023-04-15T01:35:23;8.77;;;5.00;;
22929;SDS011;11630;42.660;23.292;2023-04-15T01:37:55;8.37;;;5.23;;
22929;SDS011;11630;42.660;23.292;2023-04-15T01:40:36;11.50;;;5.23;;
22929;SDS011;11630;42.660;23.292;2023-04-15T01:43:07;11.37;;;6.27;;
22929;SDS011;11630;42.660;23.292;2023-04-15T01:45:38;12.30;;;5.10;;
22929;SDS011;11630;42.660;23.292;2023-04-15T01:48:09;8.03;;;5.03;;
22929;SDS011;11630;42.660;23.292;2023-04-15T01:50:41;6.07;;;4.37;;
22929;SDS011;11630;42.660;23.292;2023-04-15T01:53:11;8.90;;;4.60;;
22929;SDS011;11630;42.660;23.292;2023-04-15T01:55:42;5.73;;;4.20;;
22929;SDS011;11630;42.660;23.292;2023-04-15T01:58:13;4.70;;;4.07;;
22929;SDS011;11630;42.660;23.292;2023-04-15T02:00:43;10.17;;;4.13;;
22929;SDS011;11630;42.660;23.292;2023-04-15T02:03:15;5.53;;;4.20;;
22929;SDS011;11630;42.660;23.292;2023-04-15T02:05:46;6.90;;;4.33;;
22929;SDS011;11630;42.660;23.292;2023-04-15T02:08:15;3.77;;;3.10;;
22929;SDS011;11630;42.660;23.292;2023-04-15T02:10:47;3.47;;;3.00;;
22929;SDS011;11630;42.660;23.292;2023-04-15T02:13:19;5.97;;;3.27;;
22929;SDS011;11630;42.660;23.292;2023-04-15T02:15:50;7.43;;;3.93;;
22929;SDS011;11630;42.660;23.292;2023-04-15T02:18:24;3.90;;;3.33;;
22929;SDS011;11630;42.660;23.292;2023-04-15T02:20:54;4.17;;;3.10;;
22929;SDS011;11630;42.660;23.292;2023-04-15T02:23:25;3.63;;;3.03;;
22929;SDS011;11630;42.660;23.292;2023-04-15T02:25:57;5.03;;;3.30;;
22929;SDS011;11630;42.660;23.292;2023-04-15T02:28:27;4.50;;;3.17;;
22929;SDS011;11630;42.660;23.292;2023-04-15T02:30:58;3.20;;;2.47;;
22929;SDS011;11630;42.660;23.292;2023-04-15T02:33:28;5.90;;;3.17;;
22929;SDS011;11630;42.660;23.292;2023-04-15T02:35:59;4.67;;;3.07;;
22929;SDS011;11630;42.660;23.292;2023-04-15T02:38:29;3.73;;;3.23;;
22929;SDS011;11630;42.660;23.292;2023-04-15T02:41:00;4.63;;;4.10;;
22929;SDS011;11630;42.660;23.292;2023-04-15T02:43:32;5.83;;;4.07;;
22929;SDS011;11630;42.660;23.292;2023-04-15T02:46:05;6.03;;;4.60;;
22929;SDS011;11630;42.660;23.292;2023-04-15T02:48:36;7.00;;;4.93;;
22929;SDS011;11630;42.660;23.292;2023-04-15T02:51:11;4.93;;;4.37;;
22929;SDS011;11630;42.660;23.292;2023-04-15T02:53:40;5.77;;;4.40;;
22929;SDS011;11630;42.660;23.292;2023-04-15T02:56:12;5.63;;;4.13;;
22929;SDS011;11630;42.660;23.292;2023-04-15T02:58:42;10.57;;;4.37;;
22929;SDS011;11630;42.660;23.292;2023-04-15T03:01:13;6.67;;;4.00;;
22929;SDS011;11630;42.660;23.292;2023-04-15T03:03:44;5.07;;;4.20;;
22929;SDS011;11630;42.660;23.292;2023-04-15T03:06:15;4.40;;;3.70;;
22929;SDS011;11630;42.660;23.292;2023-04-15T03:08:46;4.73;;;4.00;;
22929;SDS011;11630;42.660;23.292;2023-04-15T03:11:18;9.03;;;6.17;;
22929;SDS011;11630;42.660;23.292;2023-04-15T03:13:49;8.53;;;6.17;;
22929;SDS011;11630;42.660;23.292;2023-04-15T03:16:20;9.13;;;5.40;;
22929;SDS011;11630;42.660;23.292;2023-04-15T03:18:50;10.53;;;5.97;;
22929;SDS011;11630;42.660;23.292;2023-04-15T03:21:21;9.57;;;7.10;;
22929;SDS011;11630;42.660;23.292;2023-04-15T03:23:51;9.93;;;6.63;;
22929;SDS011;11630;42.660;23.292;2023-04-15T03:26:29;8.70;;;4.70;;
22929;SDS011;11630;42.660;23.292;2023-04-15T03:29:00;52.53;;;30.03;;
22929;SDS011;11630;42.660;23.292;2023-04-15T03:31:30;11.80;;;7.03;;
22929;SDS011;11630;42.660;23.292;2023-04-15T03:34:01;8.73;;;7.10;;
22929;SDS011;11630;42.660;23.292;2023-04-15T03:36:33;9.60;;;6.70;;
22929;SDS011;11630;42.660;23.292;2023-04-15T03:39:03;11.33;;;7.53;;
22929;SDS011;11630;42.660;23.292;2023-04-15T03:41:34;9.73;;;6.73;;
22929;SDS011;11630;42.660;23.292;2023-04-15T03:44:06;9.77;;;7.13;;
22929;SDS011;11630;42.660;23.292;2023-04-15T03:46:37;11.60;;;6.47;;
22929;SDS011;11630;42.660;23.292;2023-04-15T03:49:08;12.03;;;6.80;;
22929;SDS011;11630;42.660;23.292;2023-04-15T03:51:38;9.80;;;6.37;;
22929;SDS011;11630;42.660;23.292;2023-04-15T03:54:09;11.47;;;6.83;;
22929;SDS011;11630;42.660;23.292;2023-04-15T03:56:40;11.03;;;6.23;;
22929;SDS011;11630;42.660;23.292;2023-04-15T03:59:11;11.23;;;8.27;;
22929;SDS011;11630;42.660;23.292;2023-04-15T04:01:42;12.17;;;7.77;;
22929;SDS011;11630;42.660;23.292;2023-04-15T04:04:13;12.17;;;7.43;;
22929;SDS011;11630;42.660;23.292;2023-04-15T04:06:43;10.30;;;6.30;;
22929;SDS011;11630;42.660;23.292;2023-04-15T04:09:13;8.07;;;6.97;;
22929;SDS011;11630;42.660;23.292;2023-04-15T04:11:44;9.40;;;7.10;;
22929;SDS011;11630;42.660;23.292;2023-04-15T04:14:15;9.43;;;6.33;;
22929;SDS011;11630;42.660;23.292;2023-04-15T04:16:46;7.47;;;5.93;;
22929;SDS011;11630;42.660;23.292;2023-04-15T04:19:17;9.30;;;6.20;;
22929;SDS011;11630;42.660;23.292;2023-04-15T04:21:48;6.90;;;5.97;;
22929;SDS011;11630;42.660;23.292;2023-04-15T04:24:20;8.23;;;6.23;;
22929;SDS011;11630;42.660;23.292;2023-04-15T04:26:50;7.20;;;6.03;;
22929;SDS011;11630;42.660;23.292;2023-04-15T04:29:20;8.97;;;6.50;;
22929;SDS011;11630;42.660;23.292;2023-04-15T04:31:50;9.00;;;6.67;;
22929;SDS011;11630;42.660;23.292;2023-04-15T04:34:21;11.60;;;6.37;;
22929;SDS011;11630;42.660;23.292;2023-04-15T04:36:52;6.80;;;5.90;;
22929;SDS011;11630;42.660;23.292;2023-04-15T04:39:23;8.33;;;5.87;;
22929;SDS011;11630;42.660;23.292;2023-04-15T04:41:53;7.33;;;5.70;;
22929;SDS011;11630;42.660;23.292;2023-04-15T04:44:23;7.90;;;5.67;;
22929;SDS011;11630;42.660;23.292;2023-04-15T04:46:54;8.47;;;5.93;;
22929;SDS011;11630;42.660;23.292;2023-04-15T04:49:26;10.13;;;6.77;;
22929;SDS011;11630;42.660;23.292;2023-04-15T04:51:57;11.03;;;6.90;;
22929;SDS011;11630;42.660;23.292;2023-04-15T04:54:27;10.97;;;5.97;;
22929;SDS011;11630;42.660;23.292;2023-04-15T04:56:58;9.67;;;6.13;;
22929;SDS011;11630;42.660;23.292;2023-04-15T04:59:30;10.03;;;7.97;;
22929;SDS011;11630;42.660;23.292;2023-04-15T05:02:01;13.23;;;6.63;;
22929;SDS011;11630;42.660;23.292;2023-04-15T05:04:31;14.17;;;9.17;;
22929;SDS011;11630;42.660;23.292;2023-04-15T05:07:02;12.73;;;9.90;;
22929;SDS011;11630;42.660;23.292;2023-04-15T05:09:33;12.77;;;9.37;;
22929;SDS011;11630;42.660;23.292;2023-04-15T05:12:04;13.23;;;10.23;;
22929;SDS011;11630;42.660;23.292;2023-04-15T05:14:35;13.17;;;10.50;;
22929;SDS011;11630;42.660;23.292;2023-04-15T05:17:06;14.27;;;9.30;;
22929;SDS011;11630;42.660;23.292;2023-04-15T05:19:37;13.83;;;9.13;;
22929;SDS011;11630;42.660;23.292;2023-04-15T05:22:07;18.13;;;10.40;;
22929;SDS011;11630;42.660;23.292;2023-04-15T05:24:38;12.77;;;8.07;;
22929;SDS011;11630;42.660;23.292;2023-04-15T05:27:09;14.20;;;8.83;;
22929;SDS011;11630;42.660;23.292;2023-04-15T05:29:48;13.90;;;8.60;;
22929;SDS011;11630;42.660;23.292;2023-04-15T05:32:14;11.00;;;8.03;;
22929;SDS011;11630;42.660;23.292;2023-04-15T05:34:45;9.43;;;8.27;;
22929;SDS011;11630;42.660;23.292;2023-04-15T05:37:15;12.10;;;7.17;;
22929;SDS011;11630;42.660;23.292;2023-04-15T05:39:46;9.93;;;6.47;;
22929;SDS011;11630;42.660;23.292;2023-04-15T05:42:17;11.47;;;6.30;;
22929;SDS011;11630;42.660;23.292;2023-04-15T05:44:48;10.27;;;6.90;;
22929;SDS011;11630;42.660;23.292;2023-04-15T05:47:18;9.53;;;6.47;;
22929;SDS011;11630;42.660;23.292;2023-04-15T05:49:50;11.10;;;7.07;;
22929;SDS011;11630;42.660;23.292;2023-04-15T05:52:21;10.23;;;6.67;;
22929;SDS011;11630;42.660;23.292;2023-04-15T05:54:52;8.20;;;6.33;;
22929;SDS011;11630;42.660;23.292;2023-04-15T05:57:22;8.40;;;6.17;;
22929;SDS011;11630;42.660;23.292;2023-04-15T05:59:53;10.57;;;7.07;;
22929;SDS011;11630;42.660;23.292;2023-04-15T06:02:24;10.57;;;6.80;;
22929;SDS011;11630;42.660;23.292;2023-04-15T06:04:55;10.80;;;6.40;;
22929;SDS011;11630;42.660;23.292;2023-04-15T06:07:25;9.87;;;6.10;;
22929;SDS011;11630;42.660;23.292;2023-04-15T06:09:56;11.00;;;6.20;;
22929;SDS011;11630;42.660;23.292;2023-04-15T06:12:27;14.60;;;6.63;;
22929;SDS011;11630;42.660;23.292;2023-04-15T06:14:57;12.33;;;6.53;;
22929;SDS011;11630;42.660;23.292;2023-04-15T06:17:28;12.43;;;6.23;;
22929;SDS011;11630;42.660;23.292;2023-04-15T06:20:04;13.70;;;6.83;;
22929;SDS011;11630;42.660;23.292;2023-04-15T06:22:35;12.53;;;6.87;;
22929;SDS011;11630;42.660;23.292;2023-04-15T06:25:06;6.17;;;5.00;;
22929;SDS011;11630;42.660;23.292;2023-04-15T06:27:40;7.67;;;5.70;;
22929;SDS011;11630;42.660;23.292;2023-04-15T06:30:12;12.97;;;6.60;;
22929;SDS011;11630;42.660;23.292;2023-04-15T06:32:43;8.17;;;6.10;;
22929;SDS011;11630;42.660;23.292;2023-04-15T06:35:15;10.73;;;6.60;;
22929;SDS011;11630;42.660;23.292;2023-04-15T06:37:45;13.40;;;7.17;;
22929;SDS011;11630;42.660;23.292;2023-04-15T06:40:16;11.63;;;6.73;;
22929;SDS011;11630;42.660;23.292;2023-04-15T06:42:46;13.67;;;6.17;;
22929;SDS011;11630;42.660;23.292;2023-04-15T06:45:17;7.50;;;5.67;;
22929;SDS011;11630;42.660;23.292;2023-04-15T06:47:48;10.73;;;5.93;;
22929;SDS011;11630;42.660;23.292;2023-04-15T06:50:19;16.00;;;6.07;;
22929;SDS011;11630;42.660;23.292;2023-04-15T06:52:50;8.70;;;6.23;;
22929;SDS011;11630;42.660;23.292;2023-04-15T06:55:22;15.63;;;6.83;;
22929;SDS011;11630;42.660;23.292;2023-04-15T06:57:55;6.77;;;5.93;;
22929;SDS011;11630;42.660;23.292;2023-04-15T07:00:25;10.23;;;6.40;;
22929;SDS011;11630;42.660;23.292;2023-04-15T07:02:56;7.83;;;5.40;;
22929;SDS011;11630;42.660;23.292;2023-04-15T07:05:28;12.23;;;6.93;;
22929;SDS011;11630;42.660;23.292;2023-04-15T07:07:59;10.53;;;6.97;;
22929;SDS011;11630;42.660;23.292;2023-04-15T07:10:30;10.13;;;5.83;;
22929;SDS011;11630;42.660;23.292;2023-04-15T07:13:00;8.10;;;6.33;;
22929;SDS011;11630;42.660;23.292;2023-04-15T07:15:34;8.63;;;6.07;;
22929;SDS011;11630;42.660;23.292;2023-04-15T07:18:05;8.93;;;6.10;;
22929;SDS011;11630;42.660;23.292;2023-04-15T07:20:37;6.67;;;5.53;;
22929;SDS011;11630;42.660;23.292;2023-04-15T07:23:08;10.43;;;6.13;;
22929;SDS011;11630;42.660;23.292;2023-04-15T07:25:41;7.93;;;6.23;;
22929;SDS011;11630;42.660;23.292;2023-04-15T07:28:12;8.20;;;5.30;;
22929;SDS011;11630;42.660;23.292;2023-04-15T07:30:43;9.53;;;6.07;;
22929;SDS011;11630;42.660;23.292;2023-04-15T07:33:14;8.00;;;4.73;;
22929;SDS011;11630;42.660;23.292;2023-04-15T07:35:45;9.27;;;4.67;;
22929;SDS011;11630;42.660;23.292;2023-04-15T07:38:16;8.23;;;4.40;;
22929;SDS011;11630;42.660;23.292;2023-04-15T07:40:50;7.17;;;4.47;;
22929;SDS011;11630;42.660;23.292;2023-04-15T07:43:21;8.67;;;4.47;;
22929;SDS011;11630;42.660;23.292;2023-04-15T07:45:54;6.27;;;4.23;;
22929;SDS011;11630;42.660;23.292;2023-04-15T07:48:31;8.73;;;4.40;;
22929;SDS011;11630;42.660;23.292;2023-04-15T07:51:02;10.07;;;4.77;;
22929;SDS011;11630;42.660;23.292;2023-04-15T07:53:33;7.60;;;4.80;;
22929;SDS011;11630;42.660;23.292;2023-04-15T07:56:02;9.33;;;4.97;;
22929;SDS011;11630;42.660;23.292;2023-04-15T07:58:33;10.40;;;4.07;;
22929;SDS011;11630;42.660;23.292;2023-04-15T08:01:08;8.70;;;4.40;;
22929;SDS011;11630;42.660;23.292;2023-04-15T08:03:39;5.27;;;4.60;;
22929;SDS011;11630;42.660;23.292;2023-04-15T08:06:10;8.00;;;4.20;;
22929;SDS011;11630;42.660;23.292;2023-04-15T08:08:41;6.77;;;4.17;;
22929;SDS011;11630;42.660;23.292;2023-04-15T08:11:11;6.50;;;3.97;;
22929;SDS011;11630;42.660;23.292;2023-04-15T08:13:41;16.60;;;6.20;;
22929;SDS011;11630;42.660;23.292;2023-04-15T08:18:51;5.43;;;3.73;;
22929;SDS011;11630;42.660;23.292;2023-04-15T08:21:22;11.80;;;4.30;;
22929;SDS011;11630;42.660;23.292;2023-04-15T08:23:52;4.57;;;3.27;;
22929;SDS011;11630;42.660;23.292;2023-04-15T08:26:23;4.37;;;2.57;;
22929;SDS011;11630;42.660;23.292;2023-04-15T08:28:53;4.30;;;2.47;;
22929;SDS011;11630;42.660;23.292;2023-04-15T08:31:25;4.67;;;2.77;;
22929;SDS011;11630;42.660;23.292;2023-04-15T08:33:56;4.93;;;2.50;;
22929;SDS011;11630;42.660;23.292;2023-04-15T08:36:27;8.90;;;3.53;;
22929;SDS011;11630;42.660;23.292;2023-04-15T08:38:58;4.03;;;2.57;;
22929;SDS011;11630;42.660;23.292;2023-04-15T08:41:37;3.20;;;2.33;;
22929;SDS011;11630;42.660;23.292;2023-04-15T08:44:02;5.00;;;3.20;;
22929;SDS011;11630;42.660;23.292;2023-04-15T08:46:33;2.47;;;1.80;;
22929;SDS011;11630;42.660;23.292;2023-04-15T08:49:04;2.67;;;1.43;;
22929;SDS011;11630;42.660;23.292;2023-04-15T08:51:37;4.33;;;1.50;;
22929;SDS011;11630;42.660;23.292;2023-04-15T08:54:11;1.47;;;1.00;;
22929;SDS011;11630;42.660;23.292;2023-04-15T08:56:42;3.17;;;1.57;;
22929;SDS011;11630;42.660;23.292;2023-04-15T08:59:13;1.30;;;1.20;;
22929;SDS011;11630;42.660;23.292;2023-04-15T09:01:48;2.00;;;1.53;;
22929;SDS011;11630;42.660;23.292;2023-04-15T09:04:20;1.40;;;1.30;;
22929;SDS011;11630;42.660;23.292;2023-04-15T09:06:51;0.83;;;0.83;;
22929;SDS011;11630;42.660;23.292;2023-04-15T09:09:25;3.17;;;0.90;;
22929;SDS011;11630;42.660;23.292;2023-04-15T09:11:57;1.03;;;0.70;;
22929;SDS011;11630;42.660;23.292;2023-04-15T09:14:29;1.67;;;0.83;;
22929;SDS011;11630;42.660;23.292;2023-04-15T09:17:02;1.07;;;0.70;;
22929;SDS011;11630;42.660;23.292;2023-04-15T09:19:37;1.00;;;0.97;;
22929;SDS011;11630;42.660;23.292;2023-04-15T09:22:08;0.80;;;0.60;;
22929;SDS011;11630;42.660;23.292;2023-04-15T09:24:39;3.60;;;0.90;;
22929;SDS011;11630;42.660;23.292;2023-04-15T09:27:10;2.57;;;0.83;;
22929;SDS011;11630;42.660;23.292;2023-04-15T09:29:41;4.53;;;0.70;;
22929;SDS011;11630;42.660;23.292;2023-04-15T09:32:13;0.93;;;0.63;;
22929;SDS011;11630;42.660;23.292;2023-04-15T09:34:44;2.23;;;0.80;;
22929;SDS011;11630;42.660;23.292;2023-04-15T09:37:15;1.40;;;0.90;;
22929;SDS011;11630;42.660;23.292;2023-04-15T09:39:51;1.23;;;0.60;;
22929;SDS011;11630;42.660;23.292;2023-04-15T09:42:22;4.43;;;0.87;;
22929;SDS011;11630;42.660;23.292;2023-04-15T09:44:52;1.93;;;0.67;;
22929;SDS011;11630;42.660;23.292;2023-04-15T09:47:27;1.30;;;1.00;;
22929;SDS011;11630;42.660;23.292;2023-04-15T09:49:59;1.83;;;1.03;;
22929;SDS011;11630;42.660;23.292;2023-04-15T09:52:30;2.50;;;1.30;;
22929;SDS011;11630;42.660;23.292;2023-04-15T09:55:01;1.67;;;1.20;;
22929;SDS011;11630;42.660;23.292;2023-04-15T09:57:35;1.57;;;0.90;;
22929;SDS011;11630;42.660;23.292;2023-04-15T10:00:10;1.07;;;0.97;;
22929;SDS011;11630;42.660;23.292;2023-04-15T10:02:42;1.60;;;0.70;;
22929;SDS011;11630;42.660;23.292;2023-04-15T10:05:13;1.30;;;0.83;;
22929;SDS011;11630;42.660;23.292;2023-04-15T10:07:44;1.97;;;1.20;;
22929;SDS011;11630;42.660;23.292;2023-04-15T10:10:17;3.20;;;1.13;;
22929;SDS011;11630;42.660;23.292;2023-04-15T10:12:48;2.83;;;1.00;;
22929;SDS011;11630;42.660;23.292;2023-04-15T10:15:20;4.30;;;0.70;;
22929;SDS011;11630;42.660;23.292;2023-04-15T10:17:52;0.80;;;0.70;;
22929;SDS011;11630;42.660;23.292;2023-04-15T10:20:22;3.43;;;0.90;;
22929;SDS011;11630;42.660;23.292;2023-04-15T10:22:54;1.30;;;0.80;;
22929;SDS011;11630;42.660;23.292;2023-04-15T10:25:27;1.33;;;0.90;;
22929;SDS011;11630;42.660;23.292;2023-04-15T10:27:57;5.23;;;0.83;;
22929;SDS011;11630;42.660;23.292;2023-04-15T10:30:28;3.93;;;0.80;;
22929;SDS011;11630;42.660;23.292;2023-04-15T10:33:00;1.57;;;0.87;;
22929;SDS011;11630;42.660;23.292;2023-04-15T10:35:33;4.00;;;0.97;;
22929;SDS011;11630;42.660;23.292;2023-04-15T10:38:52;3.63;;;1.53;;
22929;SDS011;11630;42.660;23.292;2023-04-15T10:40:54;1.73;;;1.10;;
22929;SDS011;11630;42.660;23.292;2023-04-15T10:43:36;2.43;;;1.10;;
22929;SDS011;11630;42.660;23.292;2023-04-15T10:46:06;0.97;;;0.97;;
22929;SDS011;11630;42.660;23.292;2023-04-15T10:48:38;0.80;;;0.80;;
22929;SDS011;11630;42.660;23.292;2023-04-15T10:51:09;1.27;;;1.00;;
22929;SDS011;11630;42.660;23.292;2023-04-15T10:53:42;5.50;;;1.20;;
22929;SDS011;11630;42.660;23.292;2023-04-15T10:56:13;3.10;;;0.83;;
22929;SDS011;11630;42.660;23.292;2023-04-15T10:58:45;4.20;;;1.17;;
22929;SDS011;11630;42.660;23.292;2023-04-15T11:01:18;4.60;;;1.20;;
22929;SDS011;11630;42.660;23.292;2023-04-15T11:03:48;1.43;;;0.80;;
22929;SDS011;11630;42.660;23.292;2023-04-15T11:06:19;2.80;;;1.40;;
22929;SDS011;11630;42.660;23.292;2023-04-15T11:08:57;1.80;;;0.80;;
22929;SDS011;11630;42.660;23.292;2023-04-15T11:14:22;0.73;;;0.73;;
22929;SDS011;11630;42.660;23.292;2023-04-15T11:16:53;1.87;;;0.83;;
22929;SDS011;11630;42.660;23.292;2023-04-15T11:19:24;1.70;;;1.23;;
22929;SDS011;11630;42.660;23.292;2023-04-15T11:21:54;2.93;;;1.20;;
22929;SDS011;11630;42.660;23.292;2023-04-15T11:24:25;1.10;;;1.00;;
22929;SDS011;11630;42.660;23.292;2023-04-15T11:26:56;1.40;;;0.97;;
22929;SDS011;11630;42.660;23.292;2023-04-15T11:29:35;4.63;;;0.90;;
22929;SDS011;11630;42.660;23.292;2023-04-15T11:32:05;2.40;;;1.00;;
22929;SDS011;11630;42.660;23.292;2023-04-15T11:34:38;4.60;;;0.87;;
22929;SDS011;11630;42.660;23.292;2023-04-15T11:37:09;4.33;;;1.23;;
22929;SDS011;11630;42.660;23.292;2023-04-15T11:39:40;2.40;;;1.10;;
22929;SDS011;11630;42.660;23.292;2023-04-15T11:42:16;1.30;;;1.20;;
22929;SDS011;11630;42.660;23.292;2023-04-15T11:44:47;1.63;;;0.90;;
22929;SDS011;11630;42.660;23.292;2023-04-15T11:47:24;3.67;;;1.30;;
22929;SDS011;11630;42.660;23.292;2023-04-15T11:49:55;2.10;;;1.43;;
22929;SDS011;11630;42.660;23.292;2023-04-15T11:52:26;3.20;;;1.20;;
22929;SDS011;11630;42.660;23.292;2023-04-15T11:55:02;1.70;;;1.00;;
22929;SDS011;11630;42.660;23.292;2023-04-15T11:57:32;2.73;;;1.30;;
22929;SDS011;11630;42.660;23.292;2023-04-15T12:00:04;4.10;;;1.30;;
22929;SDS011;11630;42.660;23.292;2023-04-15T12:02:36;3.43;;;1.43;;
22929;SDS011;11630;42.660;23.292;2023-04-15T12:05:07;1.90;;;1.20;;
22929;SDS011;11630;42.660;23.292;2023-04-15T12:10:30;2.73;;;1.37;;
22929;SDS011;11630;42.660;23.292;2023-04-15T12:12:59;1.77;;;1.20;;
22929;SDS011;11630;42.660;23.292;2023-04-15T12:15:31;4.03;;;1.07;;
22929;SDS011;11630;42.660;23.292;2023-04-15T12:18:02;5.57;;;1.07;;
22929;SDS011;11630;42.660;23.292;2023-04-15T12:20:42;4.13;;;1.20;;
22929;SDS011;11630;42.660;23.292;2023-04-15T12:23:06;6.37;;;1.13;;
22929;SDS011;11630;42.660;23.292;2023-04-15T12:25:39;2.83;;;1.20;;
22929;SDS011;11630;42.660;23.292;2023-04-15T12:28:10;3.50;;;1.27;;
22929;SDS011;11630;42.660;23.292;2023-04-15T12:30:47;4.70;;;1.00;;
22929;SDS011;11630;42.660;23.292;2023-04-15T12:33:20;2.63;;;1.03;;
22929;SDS011;11630;42.660;23.292;2023-04-15T12:35:51;5.13;;;0.90;;
22929;SDS011;11630;42.660;23.292;2023-04-15T12:38:22;1.03;;;0.80;;
22929;SDS011;11630;42.660;23.292;2023-04-15T12:40:53;2.73;;;1.30;;
22929;SDS011;11630;42.660;23.292;2023-04-15T12:43:24;1.20;;;1.03;;
22929;SDS011;11630;42.660;23.292;2023-04-15T12:45:54;2.30;;;1.20;;
22929;SDS011;11630;42.660;23.292;2023-04-15T12:48:25;1.37;;;0.83;;
22929;SDS011;11630;42.660;23.292;2023-04-15T12:50:57;1.30;;;1.17;;
22929;SDS011;11630;42.660;23.292;2023-04-15T12:53:27;1.13;;;0.87;;
22929;SDS011;11630;42.660;23.292;2023-04-15T12:55:58;1.37;;;1.10;;
22929;SDS011;11630;42.660;23.292;2023-04-15T12:58:29;0.70;;;0.70;;
22929;SDS011;11630;42.660;23.292;2023-04-15T13:01:00;1.67;;;0.83;;
22929;SDS011;11630;42.660;23.292;2023-04-15T13:03:31;0.70;;;0.70;;
22929;SDS011;11630;42.660;23.292;2023-04-15T13:06:02;1.30;;;0.70;;
22929;SDS011;11630;42.660;23.292;2023-04-15T13:08:33;1.87;;;1.00;;
22929;SDS011;11630;42.660;23.292;2023-04-15T13:11:04;1.83;;;1.10;;
22929;SDS011;11630;42.660;23.292;2023-04-15T13:13:35;1.90;;;1.03;;
22929;SDS011;11630;42.660;23.292;2023-04-15T13:16:06;0.80;;;0.73;;
22929;SDS011;11630;42.660;23.292;2023-04-15T13:18:37;3.40;;;1.10;;
22929;SDS011;11630;42.660;23.292;2023-04-15T13:21:07;0.70;;;0.63;;
22929;SDS011;11630;42.660;23.292;2023-04-15T13:23:40;1.43;;;1.00;;
22929;SDS011;11630;42.660;23.292;2023-04-15T13:26:10;0.90;;;0.80;;
22929;SDS011;11630;42.660;23.292;2023-04-15T13:28:41;5.70;;;1.00;;
22929;SDS011;11630;42.660;23.292;2023-04-15T13:31:12;0.63;;;0.63;;
22929;SDS011;11630;42.660;23.292;2023-04-15T13:33:45;1.70;;;0.97;;
22929;SDS011;11630;42.660;23.292;2023-04-15T13:36:16;2.13;;;1.40;;
22929;SDS011;11630;42.660;23.292;2023-04-15T13:38:50;2.93;;;1.40;;
22929;SDS011;11630;42.660;23.292;2023-04-15T13:41:20;2.23;;;1.07;;
22929;SDS011;11630;42.660;23.292;2023-04-15T13:43:51;3.63;;;1.40;;
22929;SDS011;11630;42.660;23.292;2023-04-15T13:46:22;0.70;;;0.70;;
22929;SDS011;11630;42.660;23.292;2023-04-15T13:48:53;5.27;;;0.80;;
22929;SDS011;11630;42.660;23.292;2023-04-15T13:51:24;1.90;;;0.70;;
22929;SDS011;11630;42.660;23.292;2023-04-15T13:53:55;3.50;;;0.90;;
22929;SDS011;11630;42.660;23.292;2023-04-15T13:56:26;1.60;;;0.83;;
22929;SDS011;11630;42.660;23.292;2023-04-15T13:58:57;1.10;;;0.60;;
22929;SDS011;11630;42.660;23.292;2023-04-15T14:01:28;3.13;;;0.87;;
22929;SDS011;11630;42.660;23.292;2023-04-15T14:03:59;4.33;;;0.90;;
22929;SDS011;11630;42.660;23.292;2023-04-15T14:06:29;2.77;;;1.00;;
22929;SDS011;11630;42.660;23.292;2023-04-15T14:09:01;1.10;;;1.00;;
22929;SDS011;11630;42.660;23.292;2023-04-15T14:11:31;3.70;;;1.00;;
22929;SDS011;11630;42.660;23.292;2023-04-15T14:14:02;3.00;;;1.20;;
22929;SDS011;11630;42.660;23.292;2023-04-15T14:16:33;1.10;;;0.80;;
22929;SDS011;11630;42.660;23.292;2023-04-15T14:19:04;3.03;;;1.30;;
22929;SDS011;11630;42.660;23.292;2023-04-15T14:21:35;1.87;;;0.97;;
22929;SDS011;11630;42.660;23.292;2023-04-15T14:24:06;0.70;;;0.70;;
22929;SDS011;11630;42.660;23.292;2023-04-15T14:26:36;2.83;;;1.13;;
22929;SDS011;11630;42.660;23.292;2023-04-15T14:29:07;3.00;;;1.30;;
22929;SDS011;11630;42.660;23.292;2023-04-15T14:31:38;4.23;;;2.70;;
22929;SDS011;11630;42.660;23.292;2023-04-15T14:34:09;1.80;;;0.70;;
22929;SDS011;11630;42.660;23.292;2023-04-15T14:36:41;1.53;;;0.50;;
22929;SDS011;11630;42.660;23.292;2023-04-15T14:39:12;0.70;;;0.70;;
22929;SDS011;11630;42.660;23.292;2023-04-15T14:41:43;2.73;;;0.93;;
22929;SDS011;11630;42.660;23.292;2023-04-15T14:44:14;1.40;;;0.80;;
22929;SDS011;11630;42.660;23.292;2023-04-15T14:46:45;1.93;;;0.90;;
22929;SDS011;11630;42.660;23.292;2023-04-15T14:49:17;0.90;;;0.90;;
22929;SDS011;11630;42.660;23.292;2023-04-15T14:51:48;0.90;;;0.77;;
22929;SDS011;11630;42.660;23.292;2023-04-15T14:54:19;1.23;;;0.93;;
22929;SDS011;11630;42.660;23.292;2023-04-15T14:56:49;2.67;;;0.80;;
22929;SDS011;11630;42.660;23.292;2023-04-15T14:59:20;1.80;;;0.80;;
22929;SDS011;11630;42.660;23.292;2023-04-15T15:01:51;3.30;;;0.80;;
22929;SDS011;11630;42.660;23.292;2023-04-15T15:04:23;0.70;;;0.70;;